Overview Statistics Trail Chart Weather Telemetry Raw packets
 

This is the latest recevied weather packets stored in our database for station/object W2SRH. If no packets are shown the sender has not sent any weather packets the latest 10 day(s).

<< 1 2 3 4 5 6 >>
Time Temp. Humidity Pressure Rain* Wind** Luminosity Snow
1788553144 29.44° C 58% 1002.9 hPa 0 mm 0.89 m/s, 323° - -
1788552550 29.44° C 58% 1003 hPa 0 mm 0.45 m/s, 33° - -
1788552099 28.89° C 57% 1003.4 hPa 0 mm 2.68 m/s, 297° - -
1788551944 30° C 55% 1003.1 hPa 0 mm 0.89 m/s, 331° - -
1788551345 28.89° C 57% 1003.2 hPa 0 mm 0.89 m/s, 277° - -
1788550748 28.89° C 57% 1003.4 hPa 0 mm 2.68 m/s, 297° - -
1788550162 28.89° C 58% 1003.8 hPa 0 mm 0.45 m/s, 337° - -
1788550144 30° C 55% 1003.4 hPa 0 mm 2.24 m/s, 291° - -
1788549545 29.44° C 56% 1003.4 hPa 0 mm 2.68 m/s, 296° - -
1788548948 29.44° C 57% 1003.6 hPa 0 mm 0.45 m/s, 300° - -
1788548343 28.89° C 58% 1003.8 hPa 0 mm 0.45 m/s, 337° - -
1788548243 28.89° C 60% 1004 hPa 0 mm 0.45 m/s, 4° - -
1788547745 28.89° C 59% 1003.9 hPa 0 mm 0.45 m/s, 339° - -
1788547147 28.89° C 60% 1004 hPa 0 mm 0.89 m/s, 315° - -
1788546545 28.89° C 60% 1004 hPa 0 mm 0.45 m/s, 4° - -
1788546337 28.33° C 59% 1004.1 hPa 0 mm 1.34 m/s, 326° - -
1788545945 28.33° C 59% 1004 hPa 0 mm 0.45 m/s, 7° - -
1788545345 28.33° C 59% 1004.1 hPa 0 mm 1.34 m/s, 326° - -
1788544746 29.44° C 57% 1004.1 hPa 0 mm 1.79 m/s, 314° - -
1788544145 28.89° C 58% 1004.1 hPa 0 mm 0.89 m/s, 6° - -
1788543544 28.89° C 57% 1004 hPa 0 mm 2.24 m/s, 308° - -
1788542944 29.44° C 57% 1004 hPa 0 mm 0.89 m/s, 308° - -
1788542489 29.44° C 57% 1004.1 hPa 0 mm 1.34 m/s, 317° - -
1788542345 29.44° C 56% 1004 hPa 0 mm 1.34 m/s, 306° - -
1788541744 28.89° C 58% 1004.1 hPa 0 mm 1.34 m/s, 311° - -

* Rain latest hour (hover to see other rain measurements)
** Current wind speed in m/s (hover to see current wind gust speed)